sensor_id;sensor_type;location;lat;lon;timestamp;P1;durP1;ratioP1;P2;durP2;ratioP2
27039;SDS011;14589;51.578;7.306;2022-10-16T00:00:39;5.03;;;2.80;;
27039;SDS011;14589;51.578;7.306;2022-10-16T00:03:05;6.10;;;3.20;;
27039;SDS011;14589;51.578;7.306;2022-10-16T00:05:31;8.93;;;3.03;;
27039;SDS011;14589;51.578;7.306;2022-10-16T00:07:57;4.50;;;2.53;;
27039;SDS011;14589;51.578;7.306;2022-10-16T00:10:22;7.65;;;2.50;;
27039;SDS011;14589;51.578;7.306;2022-10-16T00:12:48;2.92;;;2.33;;
27039;SDS011;14589;51.578;7.306;2022-10-16T00:15:17;3.78;;;2.45;;
27039;SDS011;14589;51.578;7.306;2022-10-16T00:17:43;4.47;;;2.03;;
27039;SDS011;14589;51.578;7.306;2022-10-16T00:20:08;3.05;;;1.83;;
27039;SDS011;14589;51.578;7.306;2022-10-16T00:22:34;2.78;;;1.63;;
27039;SDS011;14589;51.578;7.306;2022-10-16T00:24:59;4.28;;;1.52;;
27039;SDS011;14589;51.578;7.306;2022-10-16T00:27:27;3.85;;;2.22;;
27039;SDS011;14589;51.578;7.306;2022-10-16T00:29:52;3.17;;;2.05;;
27039;SDS011;14589;51.578;7.306;2022-10-16T00:32:18;4.00;;;2.22;;
27039;SDS011;14589;51.578;7.306;2022-10-16T00:34:45;3.45;;;1.80;;
27039;SDS011;14589;51.578;7.306;2022-10-16T00:37:13;2.60;;;1.80;;
27039;SDS011;14589;51.578;7.306;2022-10-16T00:39:39;2.78;;;2.00;;
27039;SDS011;14589;51.578;7.306;2022-10-16T00:42:04;3.08;;;2.25;;
27039;SDS011;14589;51.578;7.306;2022-10-16T00:44:49;2.88;;;2.15;;
27039;SDS011;14589;51.578;7.306;2022-10-16T00:49:48;3.75;;;2.53;;
27039;SDS011;14589;51.578;7.306;2022-10-16T00:52:15;2.47;;;2.10;;
27039;SDS011;14589;51.578;7.306;2022-10-16T00:54:41;2.50;;;2.03;;
27039;SDS011;14589;51.578;7.306;2022-10-16T00:57:07;3.05;;;1.95;;
27039;SDS011;14589;51.578;7.306;2022-10-16T00:59:37;4.00;;;2.10;;
27039;SDS011;14589;51.578;7.306;2022-10-16T01:02:05;3.53;;;2.50;;
27039;SDS011;14589;51.578;7.306;2022-10-16T01:04:37;8.23;;;2.90;;
27039;SDS011;14589;51.578;7.306;2022-10-16T01:09:57;4.32;;;2.20;;
27039;SDS011;14589;51.578;7.306;2022-10-16T01:18:11;4.57;;;1.95;;
27039;SDS011;14589;51.578;7.306;2022-10-16T01:20:42;2.78;;;1.95;;
27039;SDS011;14589;51.578;7.306;2022-10-16T01:28:33;3.35;;;2.10;;
27039;SDS011;14589;51.578;7.306;2022-10-16T01:31:03;4.60;;;1.67;;
27039;SDS011;14589;51.578;7.306;2022-10-16T01:34:14;2.25;;;1.33;;
27039;SDS011;14589;51.578;7.306;2022-10-16T01:36:24;2.35;;;1.40;;
27039;SDS011;14589;51.578;7.306;2022-10-16T01:38:52;3.72;;;1.73;;
27039;SDS011;14589;51.578;7.306;2022-10-16T01:41:24;1.88;;;1.50;;
27039;SDS011;14589;51.578;7.306;2022-10-16T01:44:11;1.60;;;1.50;;
27039;SDS011;14589;51.578;7.306;2022-10-16T01:46:43;2.47;;;1.70;;
27039;SDS011;14589;51.578;7.306;2022-10-16T01:49:11;6.25;;;1.73;;
27039;SDS011;14589;51.578;7.306;2022-10-16T01:51:38;2.92;;;1.40;;
27039;SDS011;14589;51.578;7.306;2022-10-16T01:54:04;3.38;;;1.60;;
27039;SDS011;14589;51.578;7.306;2022-10-16T01:56:35;1.88;;;1.50;;
27039;SDS011;14589;51.578;7.306;2022-10-16T01:59:01;5.88;;;1.63;;
27039;SDS011;14589;51.578;7.306;2022-10-16T02:01:33;2.10;;;1.30;;
27039;SDS011;14589;51.578;7.306;2022-10-16T02:04:02;2.83;;;1.45;;
27039;SDS011;14589;51.578;7.306;2022-10-16T02:06:37;5.35;;;1.50;;
27039;SDS011;14589;51.578;7.306;2022-10-16T02:09:03;1.83;;;1.48;;
27039;SDS011;14589;51.578;7.306;2022-10-16T02:11:28;2.63;;;1.50;;
27039;SDS011;14589;51.578;7.306;2022-10-16T02:14:06;3.72;;;1.50;;
27039;SDS011;14589;51.578;7.306;2022-10-16T02:16:39;4.82;;;1.45;;
27039;SDS011;14589;51.578;7.306;2022-10-16T02:19:10;2.35;;;1.58;;
27039;SDS011;14589;51.578;7.306;2022-10-16T02:21:49;1.67;;;1.58;;
27039;SDS011;14589;51.578;7.306;2022-10-16T02:24:35;3.90;;;1.60;;
27039;SDS011;14589;51.578;7.306;2022-10-16T02:29:31;6.28;;;1.50;;
27039;SDS011;14589;51.578;7.306;2022-10-16T02:31:59;2.97;;;1.48;;
27039;SDS011;14589;51.578;7.306;2022-10-16T02:34:27;2.95;;;1.60;;
27039;SDS011;14589;51.578;7.306;2022-10-16T02:36:54;5.32;;;1.48;;
27039;SDS011;14589;51.578;7.306;2022-10-16T02:39:21;3.33;;;1.40;;
27039;SDS011;14589;51.578;7.306;2022-10-16T02:41:47;2.55;;;1.50;;
27039;SDS011;14589;51.578;7.306;2022-10-16T02:44:12;2.05;;;1.60;;
27039;SDS011;14589;51.578;7.306;2022-10-16T02:46:38;4.43;;;1.40;;
27039;SDS011;14589;51.578;7.306;2022-10-16T02:49:04;4.55;;;1.33;;
27039;SDS011;14589;51.578;7.306;2022-10-16T02:51:29;2.15;;;1.60;;
27039;SDS011;14589;51.578;7.306;2022-10-16T02:53:58;1.88;;;1.55;;
27039;SDS011;14589;51.578;7.306;2022-10-16T02:56:23;2.40;;;1.33;;
27039;SDS011;14589;51.578;7.306;2022-10-16T02:58:49;2.05;;;1.42;;
27039;SDS011;14589;51.578;7.306;2022-10-16T03:01:16;2.22;;;1.45;;
27039;SDS011;14589;51.578;7.306;2022-10-16T03:03:44;2.10;;;1.38;;
27039;SDS011;14589;51.578;7.306;2022-10-16T03:06:10;2.53;;;1.42;;
27039;SDS011;14589;51.578;7.306;2022-10-16T03:08:35;5.25;;;1.52;;
27039;SDS011;14589;51.578;7.306;2022-10-16T03:11:00;2.88;;;1.42;;
27039;SDS011;14589;51.578;7.306;2022-10-16T03:13:27;3.17;;;1.20;;
27039;SDS011;14589;51.578;7.306;2022-10-16T03:15:53;1.45;;;1.35;;
27039;SDS011;14589;51.578;7.306;2022-10-16T03:18:20;3.58;;;1.70;;
27039;SDS011;14589;51.578;7.306;2022-10-16T03:20:46;2.28;;;1.40;;
27039;SDS011;14589;51.578;7.306;2022-10-16T03:23:11;7.13;;;1.55;;
27039;SDS011;14589;51.578;7.306;2022-10-16T03:25:37;1.90;;;1.38;;
27039;SDS011;14589;51.578;7.306;2022-10-16T03:28:02;1.98;;;1.23;;
27039;SDS011;14589;51.578;7.306;2022-10-16T03:30:28;2.53;;;1.30;;
27039;SDS011;14589;51.578;7.306;2022-10-16T03:32:54;1.88;;;1.70;;
27039;SDS011;14589;51.578;7.306;2022-10-16T03:35:20;2.55;;;1.48;;
27039;SDS011;14589;51.578;7.306;2022-10-16T03:37:46;1.98;;;1.10;;
27039;SDS011;14589;51.578;7.306;2022-10-16T03:40:13;3.53;;;1.30;;
27039;SDS011;14589;51.578;7.306;2022-10-16T03:42:38;1.48;;;1.00;;
27039;SDS011;14589;51.578;7.306;2022-10-16T03:45:04;3.15;;;1.40;;
27039;SDS011;14589;51.578;7.306;2022-10-16T03:47:34;2.15;;;1.38;;
27039;SDS011;14589;51.578;7.306;2022-10-16T03:50:00;1.52;;;1.20;;
27039;SDS011;14589;51.578;7.306;2022-10-16T03:52:25;3.20;;;1.15;;
27039;SDS011;14589;51.578;7.306;2022-10-16T03:54:50;4.18;;;1.05;;
27039;SDS011;14589;51.578;7.306;2022-10-16T03:57:16;2.60;;;1.20;;
27039;SDS011;14589;51.578;7.306;2022-10-16T03:59:42;3.58;;;1.05;;
27039;SDS011;14589;51.578;7.306;2022-10-16T04:02:07;2.03;;;1.20;;
27039;SDS011;14589;51.578;7.306;2022-10-16T04:04:44;3.00;;;0.98;;
27039;SDS011;14589;51.578;7.306;2022-10-16T04:07:09;1.42;;;1.05;;
27039;SDS011;14589;51.578;7.306;2022-10-16T04:09:35;2.50;;;1.20;;
27039;SDS011;14589;51.578;7.306;2022-10-16T04:12:00;2.28;;;1.08;;
27039;SDS011;14589;51.578;7.306;2022-10-16T04:14:26;1.38;;;1.27;;
27039;SDS011;14589;51.578;7.306;2022-10-16T04:16:51;1.40;;;1.00;;
27039;SDS011;14589;51.578;7.306;2022-10-16T04:19:16;1.10;;;1.00;;
27039;SDS011;14589;51.578;7.306;2022-10-16T04:21:42;1.20;;;1.10;;
27039;SDS011;14589;51.578;7.306;2022-10-16T04:24:16;3.78;;;1.00;;
27039;SDS011;14589;51.578;7.306;2022-10-16T04:26:41;2.03;;;1.10;;
27039;SDS011;14589;51.578;7.306;2022-10-16T04:29:07;1.58;;;1.00;;
27039;SDS011;14589;51.578;7.306;2022-10-16T04:31:39;1.00;;;0.90;;
27039;SDS011;14589;51.578;7.306;2022-10-16T04:34:05;2.95;;;1.00;;
27039;SDS011;14589;51.578;7.306;2022-10-16T04:36:31;1.45;;;1.10;;
27039;SDS011;14589;51.578;7.306;2022-10-16T04:38:57;2.22;;;1.02;;
27039;SDS011;14589;51.578;7.306;2022-10-16T04:41:22;4.15;;;1.13;;
27039;SDS011;14589;51.578;7.306;2022-10-16T04:43:48;0.80;;;0.80;;
27039;SDS011;14589;51.578;7.306;2022-10-16T04:46:17;2.00;;;1.08;;
27039;SDS011;14589;51.578;7.306;2022-10-16T04:48:54;2.53;;;1.10;;
27039;SDS011;14589;51.578;7.306;2022-10-16T04:51:19;2.25;;;1.13;;
27039;SDS011;14589;51.578;7.306;2022-10-16T04:53:45;1.48;;;1.38;;
27039;SDS011;14589;51.578;7.306;2022-10-16T04:56:10;3.50;;;1.50;;
27039;SDS011;14589;51.578;7.306;2022-10-16T04:58:36;1.25;;;1.15;;
27039;SDS011;14589;51.578;7.306;2022-10-16T05:01:04;1.75;;;1.17;;
27039;SDS011;14589;51.578;7.306;2022-10-16T05:03:29;1.92;;;1.20;;
27039;SDS011;14589;51.578;7.306;2022-10-16T05:05:58;1.10;;;1.00;;
27039;SDS011;14589;51.578;7.306;2022-10-16T05:08:27;1.25;;;1.10;;
27039;SDS011;14589;51.578;7.306;2022-10-16T05:10:53;1.63;;;1.00;;
27039;SDS011;14589;51.578;7.306;2022-10-16T05:13:22;2.03;;;0.95;;
27039;SDS011;14589;51.578;7.306;2022-10-16T05:16:01;1.30;;;0.90;;
27039;SDS011;14589;51.578;7.306;2022-10-16T05:18:26;1.77;;;0.95;;
27039;SDS011;14589;51.578;7.306;2022-10-16T05:23:31;2.17;;;1.15;;
27039;SDS011;14589;51.578;7.306;2022-10-16T05:25:57;1.50;;;1.05;;
27039;SDS011;14589;51.578;7.306;2022-10-16T05:28:27;3.60;;;1.20;;
27039;SDS011;14589;51.578;7.306;2022-10-16T05:30:53;1.42;;;1.20;;
27039;SDS011;14589;51.578;7.306;2022-10-16T05:33:20;2.63;;;1.05;;
27039;SDS011;14589;51.578;7.306;2022-10-16T05:35:49;1.42;;;0.98;;
27039;SDS011;14589;51.578;7.306;2022-10-16T05:38:15;1.10;;;0.90;;
27039;SDS011;14589;51.578;7.306;2022-10-16T05:40:50;1.70;;;1.00;;
27039;SDS011;14589;51.578;7.306;2022-10-16T05:43:19;1.42;;;1.00;;
27039;SDS011;14589;51.578;7.306;2022-10-16T05:45:53;2.92;;;1.10;;
27039;SDS011;14589;51.578;7.306;2022-10-16T05:48:29;2.17;;;1.15;;
27039;SDS011;14589;51.578;7.306;2022-10-16T05:51:03;3.40;;;1.10;;
27039;SDS011;14589;51.578;7.306;2022-10-16T05:53:30;4.22;;;1.00;;
27039;SDS011;14589;51.578;7.306;2022-10-16T05:55:57;1.27;;;1.10;;
27039;SDS011;14589;51.578;7.306;2022-10-16T05:58:23;1.20;;;1.10;;
27039;SDS011;14589;51.578;7.306;2022-10-16T06:00:57;1.95;;;1.10;;
27039;SDS011;14589;51.578;7.306;2022-10-16T06:03:24;4.70;;;1.15;;
27039;SDS011;14589;51.578;7.306;2022-10-16T06:05:50;5.95;;;1.30;;
27039;SDS011;14589;51.578;7.306;2022-10-16T06:08:16;3.42;;;1.10;;
27039;SDS011;14589;51.578;7.306;2022-10-16T06:10:42;1.17;;;1.00;;
27039;SDS011;14589;51.578;7.306;2022-10-16T06:13:08;0.93;;;0.93;;
27039;SDS011;14589;51.578;7.306;2022-10-16T06:15:35;4.95;;;1.10;;
27039;SDS011;14589;51.578;7.306;2022-10-16T06:18:01;2.13;;;1.35;;
27039;SDS011;14589;51.578;7.306;2022-10-16T06:20:26;1.42;;;0.90;;
27039;SDS011;14589;51.578;7.306;2022-10-16T06:22:52;2.72;;;1.65;;
27039;SDS011;14589;51.578;7.306;2022-10-16T06:25:17;2.75;;;1.15;;
27039;SDS011;14589;51.578;7.306;2022-10-16T06:27:43;2.25;;;1.30;;
27039;SDS011;14589;51.578;7.306;2022-10-16T06:30:09;2.17;;;1.17;;
27039;SDS011;14589;51.578;7.306;2022-10-16T06:32:35;1.38;;;0.98;;
27039;SDS011;14589;51.578;7.306;2022-10-16T06:35:01;2.03;;;1.13;;
27039;SDS011;14589;51.578;7.306;2022-10-16T06:37:27;1.40;;;1.30;;
27039;SDS011;14589;51.578;7.306;2022-10-16T06:39:54;2.00;;;1.20;;
27039;SDS011;14589;51.578;7.306;2022-10-16T06:42:20;1.30;;;1.20;;
27039;SDS011;14589;51.578;7.306;2022-10-16T06:44:45;4.05;;;0.98;;
27039;SDS011;14589;51.578;7.306;2022-10-16T06:47:11;1.85;;;1.50;;
27039;SDS011;14589;51.578;7.306;2022-10-16T06:49:36;3.38;;;1.00;;
27039;SDS011;14589;51.578;7.306;2022-10-16T06:52:02;4.13;;;1.55;;
27039;SDS011;14589;51.578;7.306;2022-10-16T06:54:29;1.35;;;0.95;;
27039;SDS011;14589;51.578;7.306;2022-10-16T06:56:55;1.30;;;1.10;;
27039;SDS011;14589;51.578;7.306;2022-10-16T06:59:21;1.13;;;1.02;;
27039;SDS011;14589;51.578;7.306;2022-10-16T07:01:48;1.05;;;0.98;;
27039;SDS011;14589;51.578;7.306;2022-10-16T07:04:13;1.25;;;1.10;;
27039;SDS011;14589;51.578;7.306;2022-10-16T07:06:39;0.98;;;0.90;;
27039;SDS011;14589;51.578;7.306;2022-10-16T07:09:06;4.00;;;1.10;;
27039;SDS011;14589;51.578;7.306;2022-10-16T07:11:34;3.17;;;1.23;;
27039;SDS011;14589;51.578;7.306;2022-10-16T07:13:59;2.38;;;1.10;;
27039;SDS011;14589;51.578;7.306;2022-10-16T07:16:27;3.78;;;1.10;;
27039;SDS011;14589;51.578;7.306;2022-10-16T07:19:00;1.77;;;1.08;;
27039;SDS011;14589;51.578;7.306;2022-10-16T07:21:31;3.28;;;1.30;;
27039;SDS011;14589;51.578;7.306;2022-10-16T07:24:01;3.50;;;1.20;;
27039;SDS011;14589;51.578;7.306;2022-10-16T07:26:27;4.03;;;1.25;;
27039;SDS011;14589;51.578;7.306;2022-10-16T07:28:56;2.15;;;1.25;;
27039;SDS011;14589;51.578;7.306;2022-10-16T07:31:22;3.40;;;1.27;;
27039;SDS011;14589;51.578;7.306;2022-10-16T07:33:49;1.58;;;0.95;;
27039;SDS011;14589;51.578;7.306;2022-10-16T07:36:15;1.85;;;1.30;;
27039;SDS011;14589;51.578;7.306;2022-10-16T07:38:41;4.85;;;1.63;;
27039;SDS011;14589;51.578;7.306;2022-10-16T07:41:08;2.28;;;1.15;;
27039;SDS011;14589;51.578;7.306;2022-10-16T07:43:38;3.08;;;1.20;;
27039;SDS011;14589;51.578;7.306;2022-10-16T07:46:04;1.75;;;0.93;;
27039;SDS011;14589;51.578;7.306;2022-10-16T07:48:31;3.28;;;1.05;;
27039;SDS011;14589;51.578;7.306;2022-10-16T07:51:05;3.45;;;1.20;;
27039;SDS011;14589;51.578;7.306;2022-10-16T07:53:31;3.05;;;1.00;;
27039;SDS011;14589;51.578;7.306;2022-10-16T07:55:58;3.38;;;1.27;;
27039;SDS011;14589;51.578;7.306;2022-10-16T07:58:28;2.78;;;1.20;;
27039;SDS011;14589;51.578;7.306;2022-10-16T08:00:54;3.75;;;1.23;;
27039;SDS011;14589;51.578;7.306;2022-10-16T08:03:20;1.13;;;1.00;;
27039;SDS011;14589;51.578;7.306;2022-10-16T08:05:45;3.80;;;1.10;;
27039;SDS011;14589;51.578;7.306;2022-10-16T08:08:12;3.75;;;1.13;;
27039;SDS011;14589;51.578;7.306;2022-10-16T08:10:39;6.95;;;1.25;;
27039;SDS011;14589;51.578;7.306;2022-10-16T08:13:04;3.53;;;1.00;;
27039;SDS011;14589;51.578;7.306;2022-10-16T08:15:30;5.50;;;1.10;;
27039;SDS011;14589;51.578;7.306;2022-10-16T08:18:00;3.60;;;1.20;;
27039;SDS011;14589;51.578;7.306;2022-10-16T08:20:26;3.42;;;1.10;;
27039;SDS011;14589;51.578;7.306;2022-10-16T08:25:22;1.42;;;0.82;;
27039;SDS011;14589;51.578;7.306;2022-10-16T08:27:48;4.43;;;1.15;;
27039;SDS011;14589;51.578;7.306;2022-10-16T08:30:14;2.40;;;1.15;;
27039;SDS011;14589;51.578;7.306;2022-10-16T08:32:41;2.97;;;1.10;;
27039;SDS011;14589;51.578;7.306;2022-10-16T08:35:07;2.97;;;1.08;;
27039;SDS011;14589;51.578;7.306;2022-10-16T08:37:42;2.47;;;1.20;;
27039;SDS011;14589;51.578;7.306;2022-10-16T08:40:16;3.53;;;1.00;;
27039;SDS011;14589;51.578;7.306;2022-10-16T08:42:52;1.20;;;0.80;;
27039;SDS011;14589;51.578;7.306;2022-10-16T08:50:55;4.00;;;0.90;;
27039;SDS011;14589;51.578;7.306;2022-10-16T08:53:24;3.75;;;1.08;;
27039;SDS011;14589;51.578;7.306;2022-10-16T08:56:00;2.88;;;1.20;;
27039;SDS011;14589;51.578;7.306;2022-10-16T08:58:27;2.33;;;1.10;;
27039;SDS011;14589;51.578;7.306;2022-10-16T09:01:02;2.42;;;1.10;;
27039;SDS011;14589;51.578;7.306;2022-10-16T09:11:57;1.38;;;0.90;;
27039;SDS011;14589;51.578;7.306;2022-10-16T09:14:42;1.77;;;0.90;;
27039;SDS011;14589;51.578;7.306;2022-10-16T09:23:00;3.28;;;1.02;;
27039;SDS011;14589;51.578;7.306;2022-10-16T09:25:36;2.13;;;1.00;;
27039;SDS011;14589;51.578;7.306;2022-10-16T09:28:04;2.63;;;0.98;;
27039;SDS011;14589;51.578;7.306;2022-10-16T09:30:30;4.25;;;1.33;;
27039;SDS011;14589;51.578;7.306;2022-10-16T09:32:57;2.35;;;0.90;;
27039;SDS011;14589;51.578;7.306;2022-10-16T09:35:42;6.50;;;1.15;;
27039;SDS011;14589;51.578;7.306;2022-10-16T09:41:39;5.13;;;1.23;;
27039;SDS011;14589;51.578;7.306;2022-10-16T09:44:02;2.35;;;0.80;;
27039;SDS011;14589;51.578;7.306;2022-10-16T09:46:33;2.75;;;1.10;;
27039;SDS011;14589;51.578;7.306;2022-10-16T09:49:03;4.00;;;1.00;;
27039;SDS011;14589;51.578;7.306;2022-10-16T09:51:35;2.45;;;1.10;;
27039;SDS011;14589;51.578;7.306;2022-10-16T09:54:10;3.83;;;1.02;;
27039;SDS011;14589;51.578;7.306;2022-10-16T09:56:39;5.40;;;1.00;;
27039;SDS011;14589;51.578;7.306;2022-10-16T09:59:15;5.30;;;1.00;;
27039;SDS011;14589;51.578;7.306;2022-10-16T10:01:49;0.70;;;0.70;;
27039;SDS011;14589;51.578;7.306;2022-10-16T10:04:17;2.63;;;1.15;;
27039;SDS011;14589;51.578;7.306;2022-10-16T10:06:45;3.00;;;1.00;;
27039;SDS011;14589;51.578;7.306;2022-10-16T10:11:43;2.85;;;1.10;;
27039;SDS011;14589;51.578;7.306;2022-10-16T10:22:40;2.95;;;1.27;;
27039;SDS011;14589;51.578;7.306;2022-10-16T10:36:16;4.63;;;0.90;;
27039;SDS011;14589;51.578;7.306;2022-10-16T10:38:58;2.97;;;1.13;;
27039;SDS011;14589;51.578;7.306;2022-10-16T10:41:29;5.07;;;1.08;;
27039;SDS011;14589;51.578;7.306;2022-10-16T10:46:51;1.63;;;0.80;;
27039;SDS011;14589;51.578;7.306;2022-10-16T10:57:32;1.48;;;1.13;;
27039;SDS011;14589;51.578;7.306;2022-10-16T11:00:06;2.50;;;1.10;;
27039;SDS011;14589;51.578;7.306;2022-10-16T11:02:37;2.95;;;0.95;;
27039;SDS011;14589;51.578;7.306;2022-10-16T11:16:00;1.30;;;0.90;;
27039;SDS011;14589;51.578;7.306;2022-10-16T11:21:07;1.73;;;1.00;;
27039;SDS011;14589;51.578;7.306;2022-10-16T11:23:53;1.88;;;1.25;;
27039;SDS011;14589;51.578;7.306;2022-10-16T11:26:41;2.17;;;1.20;;
27039;SDS011;14589;51.578;7.306;2022-10-16T11:29:13;1.10;;;1.00;;
27039;SDS011;14589;51.578;7.306;2022-10-16T11:31:43;3.25;;;1.08;;
27039;SDS011;14589;51.578;7.306;2022-10-16T11:39:54;2.63;;;1.00;;
27039;SDS011;14589;51.578;7.306;2022-10-16T11:42:30;5.05;;;1.50;;
27039;SDS011;14589;51.578;7.306;2022-10-16T11:48:04;2.53;;;1.52;;
27039;SDS011;14589;51.578;7.306;2022-10-16T11:56:14;2.00;;;1.30;;
27039;SDS011;14589;51.578;7.306;2022-10-16T12:01:42;3.63;;;1.30;;
27039;SDS011;14589;51.578;7.306;2022-10-16T12:06:57;1.55;;;1.10;;
27039;SDS011;14589;51.578;7.306;2022-10-16T12:09:31;2.03;;;0.85;;
27039;SDS011;14589;51.578;7.306;2022-10-16T12:12:04;3.20;;;1.20;;
27039;SDS011;14589;51.578;7.306;2022-10-16T12:17:03;2.25;;;0.80;;
27039;SDS011;14589;51.578;7.306;2022-10-16T12:20:02;3.60;;;1.17;;
27039;SDS011;14589;51.578;7.306;2022-10-16T12:22:49;3.40;;;1.20;;
27039;SDS011;14589;51.578;7.306;2022-10-16T12:25:38;4.03;;;1.23;;
27039;SDS011;14589;51.578;7.306;2022-10-16T12:30:40;2.72;;;1.00;;
27039;SDS011;14589;51.578;7.306;2022-10-16T12:33:21;1.25;;;1.10;;
27039;SDS011;14589;51.578;7.306;2022-10-16T12:35:51;1.27;;;0.85;;
27039;SDS011;14589;51.578;7.306;2022-10-16T12:38:21;3.80;;;0.80;;
27039;SDS011;14589;51.578;7.306;2022-10-16T12:43:26;1.30;;;0.90;;
27039;SDS011;14589;51.578;7.306;2022-10-16T12:48:40;3.10;;;1.20;;
27039;SDS011;14589;51.578;7.306;2022-10-16T12:56:33;1.10;;;0.90;;
27039;SDS011;14589;51.578;7.306;2022-10-16T12:59:18;2.70;;;1.15;;
27039;SDS011;14589;51.578;7.306;2022-10-16T13:21:38;2.70;;;1.10;;
27039;SDS011;14589;51.578;7.306;2022-10-16T13:24:30;1.40;;;0.90;;
27039;SDS011;14589;51.578;7.306;2022-10-16T13:29:38;2.60;;;0.80;;
27039;SDS011;14589;51.578;7.306;2022-10-16T13:32:07;1.45;;;1.00;;
27039;SDS011;14589;51.578;7.306;2022-10-16T13:34:44;2.83;;;0.95;;
27039;SDS011;14589;51.578;7.306;2022-10-16T13:37:30;1.52;;;0.80;;
27039;SDS011;14589;51.578;7.306;2022-10-16T13:40:07;1.90;;;0.80;;
27039;SDS011;14589;51.578;7.306;2022-10-16T13:45:22;4.90;;;0.85;;
27039;SDS011;14589;51.578;7.306;2022-10-16T13:48:12;3.22;;;1.40;;
27039;SDS011;14589;51.578;7.306;2022-10-16T13:50:37;1.95;;;0.70;;
27039;SDS011;14589;51.578;7.306;2022-10-16T13:53:23;1.05;;;0.60;;
27039;SDS011;14589;51.578;7.306;2022-10-16T13:55:48;6.00;;;0.80;;
27039;SDS011;14589;51.578;7.306;2022-10-16T13:58:15;2.55;;;0.80;;
27039;SDS011;14589;51.578;7.306;2022-10-16T14:00:52;3.53;;;0.85;;
27039;SDS011;14589;51.578;7.306;2022-10-16T14:03:20;2.38;;;0.82;;
27039;SDS011;14589;51.578;7.306;2022-10-16T14:05:53;1.50;;;0.70;;
27039;SDS011;14589;51.578;7.306;2022-10-16T14:08:26;1.02;;;0.70;;
27039;SDS011;14589;51.578;7.306;2022-10-16T14:10:58;3.83;;;0.82;;
27039;SDS011;14589;51.578;7.306;2022-10-16T14:13:45;2.20;;;0.70;;
27039;SDS011;14589;51.578;7.306;2022-10-16T14:18:41;1.92;;;0.90;;
27039;SDS011;14589;51.578;7.306;2022-10-16T14:21:12;2.50;;;0.70;;
27039;SDS011;14589;51.578;7.306;2022-10-16T14:23:40;3.78;;;0.77;;
27039;SDS011;14589;51.578;7.306;2022-10-16T14:26:20;2.95;;;0.73;;
27039;SDS011;14589;51.578;7.306;2022-10-16T14:28:48;1.88;;;0.70;;
27039;SDS011;14589;51.578;7.306;2022-10-16T14:31:26;1.95;;;0.90;;
27039;SDS011;14589;51.578;7.306;2022-10-16T14:33:58;2.38;;;0.77;;
27039;SDS011;14589;51.578;7.306;2022-10-16T14:36:25;1.80;;;0.88;;
27039;SDS011;14589;51.578;7.306;2022-10-16T14:38:57;1.80;;;0.75;;
27039;SDS011;14589;51.578;7.306;2022-10-16T14:41:29;1.48;;;0.60;;
27039;SDS011;14589;51.578;7.306;2022-10-16T14:43:56;2.70;;;0.73;;
27039;SDS011;14589;51.578;7.306;2022-10-16T14:46:35;3.47;;;0.73;;
27039;SDS011;14589;51.578;7.306;2022-10-16T14:49:03;2.47;;;0.70;;
27039;SDS011;14589;51.578;7.306;2022-10-16T14:51:39;0.60;;;0.55;;
27039;SDS011;14589;51.578;7.306;2022-10-16T14:54:08;0.95;;;0.60;;
27039;SDS011;14589;51.578;7.306;2022-10-16T14:59:07;2.38;;;1.30;;
27039;SDS011;14589;51.578;7.306;2022-10-16T15:01:37;4.43;;;2.97;;
27039;SDS011;14589;51.578;7.306;2022-10-16T15:04:02;3.83;;;2.45;;
27039;SDS011;14589;51.578;7.306;2022-10-16T15:06:28;3.92;;;1.23;;
27039;SDS011;14589;51.578;7.306;2022-10-16T15:08:53;1.85;;;0.70;;
27039;SDS011;14589;51.578;7.306;2022-10-16T15:11:19;1.92;;;1.40;;
27039;SDS011;14589;51.578;7.306;2022-10-16T15:13:45;1.80;;;0.70;;
27039;SDS011;14589;51.578;7.306;2022-10-16T15:16:11;0.70;;;0.70;;
27039;SDS011;14589;51.578;7.306;2022-10-16T15:18:38;1.85;;;0.75;;
27039;SDS011;14589;51.578;7.306;2022-10-16T15:21:04;2.83;;;0.68;;
27039;SDS011;14589;51.578;7.306;2022-10-16T15:23:30;2.30;;;0.60;;
27039;SDS011;14589;51.578;7.306;2022-10-16T15:25:55;1.85;;;0.68;;
27039;SDS011;14589;51.578;7.306;2022-10-16T15:28:21;0.80;;;0.60;;
27039;SDS011;14589;51.578;7.306;2022-10-16T15:30:55;1.50;;;0.80;;
27039;SDS011;14589;51.578;7.306;2022-10-16T15:33:25;3.22;;;1.08;;
27039;SDS011;14589;51.578;7.306;2022-10-16T15:35:58;1.65;;;0.95;;
27039;SDS011;14589;51.578;7.306;2022-10-16T15:38:23;2.30;;;0.90;;
27039;SDS011;14589;51.578;7.306;2022-10-16T15:40:49;1.67;;;0.85;;
27039;SDS011;14589;51.578;7.306;2022-10-16T15:43:15;4.15;;;0.80;;
27039;SDS011;14589;51.578;7.306;2022-10-16T15:45:42;2.35;;;0.90;;
27039;SDS011;14589;51.578;7.306;2022-10-16T15:48:16;5.13;;;1.13;;
27039;SDS011;14589;51.578;7.306;2022-10-16T15:50:47;2.90;;;0.70;;
27039;SDS011;14589;51.578;7.306;2022-10-16T15:53:15;2.42;;;0.73;;
27039;SDS011;14589;51.578;7.306;2022-10-16T15:55:42;2.20;;;0.80;;
27039;SDS011;14589;51.578;7.306;2022-10-16T15:58:09;2.90;;;0.98;;
27039;SDS011;14589;51.578;7.306;2022-10-16T16:00:36;1.10;;;1.00;;
27039;SDS011;14589;51.578;7.306;2022-10-16T16:03:01;5.10;;;1.35;;
27039;SDS011;14589;51.578;7.306;2022-10-16T16:05:29;2.00;;;0.90;;
27039;SDS011;14589;51.578;7.306;2022-10-16T16:07:56;2.00;;;1.00;;
27039;SDS011;14589;51.578;7.306;2022-10-16T16:10:22;2.78;;;0.82;;
27039;SDS011;14589;51.578;7.306;2022-10-16T16:12:58;3.00;;;1.00;;
27039;SDS011;14589;51.578;7.306;2022-10-16T16:15:24;3.85;;;0.95;;
27039;SDS011;14589;51.578;7.306;2022-10-16T16:17:52;1.42;;;0.80;;
27039;SDS011;14589;51.578;7.306;2022-10-16T16:20:18;1.27;;;0.88;;
27039;SDS011;14589;51.578;7.306;2022-10-16T16:22:44;1.80;;;0.80;;
27039;SDS011;14589;51.578;7.306;2022-10-16T16:25:10;2.10;;;0.90;;
27039;SDS011;14589;51.578;7.306;2022-10-16T16:27:36;1.17;;;0.80;;
27039;SDS011;14589;51.578;7.306;2022-10-16T16:30:06;1.00;;;0.90;;
27039;SDS011;14589;51.578;7.306;2022-10-16T16:32:34;3.28;;;0.90;;
27039;SDS011;14589;51.578;7.306;2022-10-16T16:37:30;2.78;;;0.80;;
27039;SDS011;14589;51.578;7.306;2022-10-16T16:39:57;2.10;;;0.80;;
27039;SDS011;14589;51.578;7.306;2022-10-16T16:42:25;1.25;;;0.80;;
27039;SDS011;14589;51.578;7.306;2022-10-16T16:44:52;2.05;;;0.90;;
27039;SDS011;14589;51.578;7.306;2022-10-16T16:47:23;2.63;;;1.10;;
27039;SDS011;14589;51.578;7.306;2022-10-16T16:49:49;2.13;;;0.70;;
27039;SDS011;14589;51.578;7.306;2022-10-16T16:52:14;0.65;;;0.65;;
27039;SDS011;14589;51.578;7.306;2022-10-16T16:54:40;1.52;;;0.70;;
27039;SDS011;14589;51.578;7.306;2022-10-16T16:57:12;3.33;;;0.98;;
27039;SDS011;14589;51.578;7.306;2022-10-16T16:59:37;2.90;;;1.25;;
27039;SDS011;14589;51.578;7.306;2022-10-16T17:02:03;3.50;;;0.60;;
27039;SDS011;14589;51.578;7.306;2022-10-16T17:04:28;3.08;;;0.60;;
27039;SDS011;14589;51.578;7.306;2022-10-16T17:06:54;1.48;;;0.75;;
27039;SDS011;14589;51.578;7.306;2022-10-16T17:09:20;2.30;;;0.98;;
27039;SDS011;14589;51.578;7.306;2022-10-16T17:11:45;2.17;;;0.77;;
27039;SDS011;14589;51.578;7.306;2022-10-16T17:14:16;1.83;;;0.85;;
27039;SDS011;14589;51.578;7.306;2022-10-16T17:16:44;1.65;;;0.90;;
27039;SDS011;14589;51.578;7.306;2022-10-16T17:19:11;1.27;;;0.80;;
27039;SDS011;14589;51.578;7.306;2022-10-16T17:21:40;4.97;;;1.00;;
27039;SDS011;14589;51.578;7.306;2022-10-16T17:24:11;3.83;;;0.80;;
27039;SDS011;14589;51.578;7.306;2022-10-16T17:26:37;3.30;;;0.90;;
27039;SDS011;14589;51.578;7.306;2022-10-16T17:29:06;1.10;;;0.80;;
27039;SDS011;14589;51.578;7.306;2022-10-16T17:31:35;2.65;;;1.30;;
27039;SDS011;14589;51.578;7.306;2022-10-16T17:34:03;2.03;;;1.30;;
27039;SDS011;14589;51.578;7.306;2022-10-16T17:36:30;1.95;;;1.42;;
27039;SDS011;14589;51.578;7.306;2022-10-16T17:39:03;1.77;;;1.13;;
27039;SDS011;14589;51.578;7.306;2022-10-16T17:41:34;1.92;;;1.30;;